ADDS METAR Data INFO
IDs: Format: Raw Decoded Include TAF

Data at: 0042 UTC 23 Oct 2017

KRXE 222353Z AUTO 22017G26KT 10SM SCT095 12/02 A3018 RMK AO2 PK WND 21036/2259 SLP214 T01170022 10133 20106 51003
KRXE 222253Z AUTO 22022G30KT 10SM SCT100 13/02 A3018 RMK AO2 PK WND 22034/2201 SLP212 T01280017
KRXE 222153Z AUTO 23027G36KT 10SM CLR 13/02 A3018 RMK AO2 PK WND 23037/2142 SLP212 T01330022
KRXE 222053Z AUTO 22019G28KT 10SM BKN050 13/02 A3017 RMK AO2 PK WND 22037/2025 SLP210 T01280022 56016
KRXE 221953Z AUTO 21021G33KT 10SM CLR 12/03 A3019 RMK AO2 PK WND 22036/1916 SLP220 T01220028
KRXE 221853Z AUTO 22022G34KT 10SM SCT042 SCT100 12/03 A3021 RMK AO2 PK WND 21034/1844 SLP228 T01170028
KRXE 221753Z AUTO 21020G30KT 10SM SCT110 11/02 A3023 RMK AO2 PK WND 21034/1731 SLP235 T01060017 10106 20044 56001
KRXE 221653Z AUTO 21015G32KT 10SM FEW085 10/02 A3024 RMK AO2 PK WND 21032/1644 SLP241 T01000022
KRXE 221553Z AUTO 21017G26KT 10SM FEW110 09/02 A3021 RMK AO2 PK WND 20028/1540 SLP229 T00890022
KRXE 221453Z AUTO 21011G21KT 10SM OVC035 08/02 A3023 RMK AO2 SLP238 T00830022 53004
KRXE 221353Z AUTO 20010G18KT 10SM OVC034 07/02 A3021 RMK AO2 SLP235 T00670022
KRXE 221253Z AUTO 20014G22KT 10SM OVC036 06/02 A3020 RMK AO2 SLP231 T00560022
KRXE 221153Z AUTO 20010KT 10SM OVC030 04/01 A3021 RMK AO2 SLP237 60002 70004 T00440011 10044 20011 55003
KRXE 221053Z AUTO 18012KT 10SM OVC027 04/01 A3020 RMK AO2 SLP232 T00440011
KRXE 220953Z AUTO 19013KT 10SM OVC023 04/01 A3022 RMK AO2 SLP238 T00390006
KRXE 220853Z AUTO 20013G22KT 10SM OVC020 03/01 A3022 RMK AO2 SLP242 60002 T00330006 58006
KRXE 220830Z AUTO 20012G20KT 10SM OVC016 03/01 A3023 RMK AO2 T00280011
KRXE 220753Z AUTO 19012G21KT 10SM OVC011 02/01 A3023 RMK AO2 UPB03E07SNE03 SLP247 P0000 T00220011
KRXE 220653Z AUTO 18012KT 10SM -SN BKN010 OVC014 01/01 A3024 RMK AO2 RAE33UPB43E51SNB33E43B53 CIG 006V012 SLP255 P0002 T00110006 400561006
KRXE 220621Z AUTO 18015G23KT 10SM -RA FEW007 BKN013 OVC020 02/02 A3025 RMK AO2 P0001 T00220017
KRXE 220553Z AUTO 20014G22KT 6SM -RA BR SCT014 BKN021 OVC025 03/02 A3025 RMK AO2 RAE08B41UPB36E41SNB08E28 SLP258 P0002 60002 T00280017 10056 20017 53016
KRXE 220534Z AUTO 19013KT 8SM BKN014 OVC021 02/01 A3024 RMK AO2 RAE08SNB08E28 P0001 T00220011
KRXE 220518Z AUTO 20013KT 8SM -SN SCT016 BKN021 OVC035 02/01 A3025 RMK AO2 RAE08SNB08 P0001 T00170006
KRXE 220453Z AUTO 21015G24KT 10SM -RA OVC039 03/00 A3023 RMK AO2 RAB48 SLP255 P0000 T00330000
KRXE 220353Z AUTO 18012KT 10SM OVC050 04/M02 A3021 RMK AO2 SLP247 T00391017
KRXE 220253Z AUTO 19012G20KT 10SM OVC050 04/M02 A3019 RMK AO2 SLP242 T00391022 50006
KRXE 220153Z AUTO 19013G18KT 10SM OVC060 03/M03 A3019 RMK AO2 SLP242 T00331028
KRXE 220053Z AUTO 21011KT 10SM BKN060 OVC090 06/M05 A3018 RMK AO2 SLP231 T00561050
KRXE 212353Z AUTO 20010KT 10SM BKN050 OVC095 06/M05 A3017 RMK AO2 SLP230 T00561050 10056 20017 52007
KRXE 212253Z AUTO 21011G20KT 10SM BKN050 OVC060 05/M04 A3017 RMK AO2 SLP230 T00501044
KRXE 212153Z AUTO 24019KT 10SM SCT050 BKN095 06/M05 A3016 RMK AO2 SLP225 T00561050
KRXE 212053Z AUTO 21016G25KT 10SM FEW100 05/M05 A3015 RMK AO2 PK WND 21026/2009 SLP222 T00501050 53000
KRXE 211953Z AUTO 21018G24KT 10SM BKN044 05/M04 A3014 RMK AO2 SLP219 T00501039
KRXE 211853Z AUTO 22014G22KT 10SM FEW028 SCT034 04/M02 A3015 RMK AO2 SLP224 T00391022
KRXE 211824Z AUTO 22015KT 10SM FEW023 03/M02 A3015 RMK AO2 T00331022
KRXE 211753Z AUTO 24010KT 10SM OVC021 02/M02 A3015 RMK AO2 SLP228 T00171017 10017 21006 51015
KRXE 211720Z AUTO 22013KT 10SM OVC016 01/M02 A3014 RMK AO2 T00061022
KRXE 211702Z AUTO 22010KT 10SM OVC014 00/M02 A3012 RMK AO2 T00001022
KRXE 211653Z AUTO 23011KT 10SM OVC015 00/M02 A3013 RMK AO2 SLP223 T00001022
KRXE 211553Z AUTO 23012G19KT 10SM OVC016 M01/M02 A3012 RMK AO2 SLP220 T10061022
KRXE 211453Z AUTO 21010KT 10SM OVC017 M01/M02 A3010 RMK AO2 SLP212 T10061022 51019
KRXE 211432Z AUTO 21013KT 10SM OVC016 M01/M02 A3009 RMK AO2 T10061022
KRXE 211353Z AUTO 21012KT 10SM OVC014 M01/M02 A3007 RMK AO2 SLP204 T10061022
KRXE 211253Z AUTO 21010KT 10SM BKN014 OVC021 M01/M02 A3005 RMK AO2 SLP200 T10061022